createdAt,value
2022-07-27T00:01:04.448Z,17.19
2022-07-27T00:03:31.525Z,17.16
2022-07-27T00:05:58.367Z,17.15
2022-07-27T00:08:25.170Z,17.12
2022-07-27T00:10:53.093Z,17.13
2022-07-27T00:13:20.264Z,17.10
2022-07-27T00:15:47.262Z,17.07
2022-07-27T00:18:14.511Z,17.01
2022-07-27T00:20:41.792Z,16.98
2022-07-27T00:23:10.117Z,16.95
2022-07-27T00:25:37.119Z,16.90
2022-07-27T00:28:04.438Z,16.88
2022-07-27T00:30:31.508Z,16.85
2022-07-27T00:32:58.555Z,16.82
2022-07-27T00:35:25.555Z,16.78
2022-07-27T00:37:53.016Z,16.73
2022-07-27T00:40:20.130Z,16.66
2022-07-27T00:42:46.979Z,16.63
2022-07-27T00:45:14.281Z,16.63
2022-07-27T00:47:41.593Z,16.60
2022-07-27T00:50:08.773Z,16.55
2022-07-27T00:52:36.694Z,16.51
2022-07-27T00:55:04.845Z,16.48
2022-07-27T00:57:31.749Z,16.44
2022-07-27T00:59:58.812Z,16.39
2022-07-27T01:02:26.577Z,16.33
2022-07-27T01:04:53.888Z,16.31
2022-07-27T01:07:26.094Z,16.26
2022-07-27T01:09:59.877Z,16.23
2022-07-27T01:12:32.245Z,16.17
2022-07-27T01:14:59.837Z,16.17
2022-07-27T01:17:30.885Z,16.16
2022-07-27T01:19:59.042Z,16.13
2022-07-27T01:22:26.515Z,16.15
2022-07-27T01:24:53.446Z,16.14
2022-07-27T01:27:20.335Z,16.16
2022-07-27T01:29:48.775Z,16.17
2022-07-27T01:32:16.205Z,16.17
2022-07-27T01:34:43.292Z,16.12
2022-07-27T01:37:10.340Z,16.15
2022-07-27T01:39:37.110Z,16.12
2022-07-27T01:42:04.347Z,16.09
2022-07-27T01:44:31.373Z,16.09
2022-07-27T01:46:58.152Z,16.10
2022-07-27T01:49:25.143Z,16.09
2022-07-27T01:51:52.304Z,16.06
2022-07-27T01:54:19.202Z,16.05
2022-07-27T01:56:46.044Z,16.03
2022-07-27T01:59:16.397Z,15.99
2022-07-27T02:01:44.720Z,15.98
2022-07-27T02:04:11.810Z,15.94
2022-07-27T02:06:39.470Z,15.91
2022-07-27T02:09:06.647Z,15.89
2022-07-27T02:11:52.219Z,15.87
2022-07-27T02:14:21.397Z,15.83
2022-07-27T02:16:48.758Z,15.74
2022-07-27T02:19:18.262Z,15.75
2022-07-27T02:21:45.742Z,15.72
2022-07-27T02:24:13.121Z,15.68
2022-07-27T02:26:39.951Z,15.68
2022-07-27T02:29:07.270Z,15.66
2022-07-27T02:31:34.228Z,15.63
2022-07-27T02:34:01.100Z,15.58
2022-07-27T02:36:30.941Z,15.55
2022-07-27T02:38:58.380Z,15.53
2022-07-27T02:41:25.379Z,15.50
2022-07-27T02:43:52.386Z,15.49
2022-07-27T02:46:19.463Z,15.48
2022-07-27T02:48:46.842Z,15.47
2022-07-27T02:51:15.278Z,15.47
2022-07-27T02:53:42.503Z,15.46
2022-07-27T02:56:09.471Z,15.44
2022-07-27T02:58:37.590Z,15.43
2022-07-27T03:01:05.580Z,15.42
2022-07-27T03:03:36.655Z,15.35
2022-07-27T03:06:06.120Z,15.41
2022-07-27T03:08:33.232Z,15.43
2022-07-27T03:11:00.174Z,15.46
2022-07-27T03:13:28.967Z,15.49
2022-07-27T03:15:56.459Z,15.56
2022-07-27T03:18:23.516Z,15.62
2022-07-27T03:20:50.683Z,15.65
2022-07-27T03:23:20.370Z,15.73
2022-07-27T03:25:47.163Z,15.82
2022-07-27T03:28:14.210Z,15.89
2022-07-27T03:30:41.209Z,15.99
2022-07-27T03:33:08.040Z,16.08
2022-07-27T03:35:35.410Z,16.18
2022-07-27T03:38:02.456Z,16.29
2022-07-27T03:40:32.096Z,16.41
2022-07-27T03:42:59.744Z,16.53
2022-07-27T03:45:26.955Z,16.64
2022-07-27T03:47:53.849Z,16.75
2022-07-27T03:50:22.627Z,16.86
2022-07-27T03:52:50.062Z,16.97
2022-07-27T03:55:16.860Z,17.10
2022-07-27T03:57:43.936Z,17.25
2022-07-27T04:00:14.777Z,17.34
2022-07-27T04:02:41.745Z,17.47
2022-07-27T04:05:10.220Z,17.53
2022-07-27T04:07:37.004Z,17.58
2022-07-27T04:10:05.392Z,17.65
2022-07-27T04:12:32.705Z,17.69
2022-07-27T04:15:02.686Z,17.71
2022-07-27T04:17:54.703Z,17.79
2022-07-27T04:20:16.655Z,17.90
2022-07-27T04:22:43.493Z,17.98
2022-07-27T04:25:10.851Z,18.06
2022-07-27T04:27:38.512Z,18.18
2022-07-27T04:30:09.418Z,18.30
2022-07-27T04:32:36.910Z,18.40
2022-07-27T04:35:04.434Z,18.53
2022-07-27T04:37:33.075Z,18.62
2022-07-27T04:40:00.465Z,18.77
2022-07-27T04:42:28.619Z,18.89
2022-07-27T04:44:55.523Z,18.92
2022-07-27T04:47:22.551Z,18.98
2022-07-27T04:49:49.682Z,19.06
2022-07-27T04:52:17.201Z,19.19
2022-07-27T04:54:44.610Z,19.38
2022-07-27T04:57:11.788Z,19.59
2022-07-27T04:59:38.600Z,19.71
2022-07-27T05:02:05.597Z,19.82
2022-07-27T05:04:32.807Z,19.88
2022-07-27T05:06:59.703Z,19.89
2022-07-27T05:09:26.536Z,19.90
2022-07-27T05:11:53.503Z,19.90
2022-07-27T05:14:21.349Z,19.91
2022-07-27T05:16:48.806Z,19.85
2022-07-27T05:19:16.109Z,19.81
2022-07-27T05:21:43.285Z,19.73
2022-07-27T05:24:12.866Z,19.64
2022-07-27T05:26:39.973Z,19.57
2022-07-27T05:29:06.832Z,19.46
2022-07-27T05:31:33.767Z,19.35
2022-07-27T05:34:00.796Z,19.23
2022-07-27T05:36:27.619Z,19.15
2022-07-27T05:38:54.604Z,19.07
2022-07-27T05:41:26.026Z,19.05
2022-07-27T05:43:56.972Z,19.01
2022-07-27T05:46:24.922Z,18.97
2022-07-27T05:48:53.431Z,18.95
2022-07-27T05:51:20.399Z,18.96
2022-07-27T05:53:47.419Z,18.94
2022-07-27T05:56:14.256Z,18.96
2022-07-27T05:58:41.094Z,18.96
2022-07-27T06:01:08.246Z,18.94
2022-07-27T06:03:35.211Z,18.97
2022-07-27T06:06:20.816Z,19.06
2022-07-27T06:08:47.808Z,19.20
2022-07-27T06:11:14.740Z,19.29
2022-07-27T06:13:42.453Z,19.39
2022-07-27T06:16:10.125Z,19.50
2022-07-27T06:18:37.206Z,19.61
2022-07-27T06:21:04.762Z,19.72
2022-07-27T06:23:31.928Z,19.82
2022-07-27T06:25:58.940Z,19.98
2022-07-27T06:28:25.965Z,20.13
2022-07-27T06:30:53.684Z,20.30
2022-07-27T06:33:31.124Z,20.45
2022-07-27T06:35:59.737Z,20.57
2022-07-27T06:38:29.058Z,20.54
2022-07-27T06:40:56.602Z,20.49
2022-07-27T06:43:26.688Z,20.41
2022-07-27T06:45:54.608Z,20.38
2022-07-27T06:48:22.620Z,20.30
2022-07-27T06:50:50.765Z,20.24
2022-07-27T06:53:21.034Z,20.22
2022-07-27T06:55:48.626Z,20.24
2022-07-27T06:58:16.287Z,20.24
2022-07-27T07:00:43.331Z,20.13
2022-07-27T07:03:11.317Z,20.17
2022-07-27T07:05:45.139Z,20.32
2022-07-27T07:08:13.606Z,20.49
2022-07-27T07:10:43.292Z,20.71
2022-07-27T07:13:10.112Z,20.76
2022-07-27T07:15:38.872Z,21.06
2022-07-27T07:18:07.773Z,21.25
2022-07-27T07:20:35.580Z,21.43
2022-07-27T07:23:02.661Z,21.62
2022-07-27T07:25:30.111Z,21.72
2022-07-27T07:27:57.167Z,21.79
2022-07-27T07:30:24.766Z,21.80
2022-07-27T07:32:52.006Z,21.78
2022-07-27T07:35:19.163Z,21.68
2022-07-27T07:37:50.239Z,21.47
2022-07-27T07:43:07.177Z,21.42
2022-07-27T07:45:38.231Z,21.54
2022-07-27T07:48:18.197Z,21.71
2022-07-27T07:50:45.255Z,21.82
2022-07-27T07:53:14.957Z,21.87
2022-07-27T07:55:41.796Z,21.81
2022-07-27T07:58:08.840Z,21.67
2022-07-27T08:00:36.076Z,21.64
2022-07-27T08:03:03.162Z,21.67
2022-07-27T08:05:33.114Z,21.68
2022-07-27T08:08:00.012Z,21.69
2022-07-27T08:10:28.248Z,21.68
2022-07-27T08:12:56.607Z,21.72
2022-07-27T08:15:29.972Z,21.74
2022-07-27T08:18:02.608Z,21.61
2022-07-27T08:20:29.762Z,21.77
2022-07-27T08:22:56.707Z,21.87
2022-07-27T08:25:23.896Z,21.99
2022-07-27T08:27:50.740Z,22.13
2022-07-27T08:30:17.782Z,22.28
2022-07-27T08:32:49.059Z,22.39
2022-07-27T08:35:18.015Z,22.52
2022-07-27T08:37:45.038Z,22.61
2022-07-27T08:40:39.777Z,22.74
2022-07-27T08:43:01.586Z,22.89
2022-07-27T08:45:30.531Z,23.09
2022-07-27T08:47:57.921Z,23.35
2022-07-27T08:50:27.275Z,23.47
2022-07-27T08:53:00.377Z,23.60
2022-07-27T08:55:28.666Z,23.75
2022-07-27T08:58:00.593Z,23.82
2022-07-27T09:00:30.734Z,23.93
2022-07-27T09:02:58.220Z,23.88
2022-07-27T09:05:25.396Z,23.92
2022-07-27T09:07:54.855Z,23.91
2022-07-27T09:10:34.228Z,24.10
2022-07-27T09:13:17.366Z,24.25
2022-07-27T09:16:16.450Z,24.39
2022-07-27T09:18:38.860Z,24.34
2022-07-27T09:21:21.661Z,24.14
2022-07-27T09:23:52.188Z,24.14
2022-07-27T09:26:35.149Z,24.15
2022-07-27T09:29:04.395Z,24.20
2022-07-27T09:31:32.265Z,24.30
2022-07-27T09:34:02.092Z,24.36
2022-07-27T09:36:30.354Z,24.48
2022-07-27T09:39:03.898Z,24.39
2022-07-27T09:41:46.508Z,24.27
2022-07-27T09:44:32.521Z,24.14
2022-07-27T09:47:01.236Z,24.10
2022-07-27T09:49:30.832Z,24.09
2022-07-27T09:52:01.370Z,24.17
2022-07-27T09:54:42.462Z,24.20
2022-07-27T09:57:09.791Z,24.24
2022-07-27T09:59:36.602Z,24.26
2022-07-27T10:02:03.796Z,24.14
2022-07-27T10:04:33.189Z,23.89
2022-07-27T10:07:03.868Z,23.59
2022-07-27T10:09:34.066Z,23.41
2022-07-27T10:12:02.014Z,23.38
2022-07-27T10:14:28.884Z,23.43
2022-07-27T10:16:56.467Z,23.43
2022-07-27T10:19:31.926Z,23.34
2022-07-27T10:21:59.011Z,23.24
2022-07-27T10:24:32.883Z,23.16
2022-07-27T10:27:00.436Z,23.13
2022-07-27T10:29:27.675Z,23.12
2022-07-27T10:31:54.418Z,23.14
2022-07-27T10:34:39.572Z,23.08
2022-07-27T10:37:17.919Z,23.22
2022-07-27T10:40:12.984Z,23.52
2022-07-27T10:42:40.884Z,24.11
2022-07-27T10:45:13.658Z,24.59
2022-07-27T10:47:46.233Z,25.04
2022-07-27T10:50:16.496Z,25.29
2022-07-27T10:52:48.002Z,25.39
2022-07-27T10:55:30.434Z,25.60
2022-07-27T10:58:20.424Z,25.66
2022-07-27T11:00:54.740Z,25.64
2022-07-27T11:03:23.904Z,25.84
2022-07-27T11:06:21.945Z,26.12
2022-07-27T11:09:16.887Z,26.62
2022-07-27T11:11:37.785Z,26.92
2022-07-27T11:14:04.694Z,27.15
2022-07-27T11:16:31.693Z,27.31
2022-07-27T11:19:03.561Z,27.52
2022-07-27T11:21:34.267Z,27.87
2022-07-27T11:24:12.366Z,28.11
2022-07-27T11:26:42.747Z,28.75
2022-07-27T11:29:14.854Z,29.42
2022-07-27T11:31:59.415Z,29.59
2022-07-27T11:34:34.816Z,29.54
2022-07-27T11:37:03.755Z,29.57
2022-07-27T11:42:21.744Z,30.18
2022-07-27T11:44:52.939Z,30.59
2022-07-27T11:47:21.802Z,31.06
2022-07-27T11:49:48.739Z,31.57
2022-07-27T11:52:17.921Z,32.15
2022-07-27T11:54:51.561Z,32.75
2022-07-27T11:57:20.528Z,33.30
2022-07-27T11:59:47.376Z,33.88
2022-07-27T12:02:18.159Z,33.91
2022-07-27T12:04:47.248Z,33.33
2022-07-27T12:07:17.942Z,33.16
2022-07-27T12:09:46.337Z,33.28
2022-07-27T12:12:16.203Z,33.08
2022-07-27T12:14:54.519Z,33.62
2022-07-27T12:17:42.831Z,33.35
2022-07-27T12:20:11.001Z,33.55
2022-07-27T12:22:48.965Z,33.81
2022-07-27T12:25:18.779Z,34.02
2022-07-27T12:27:59.044Z,33.80
2022-07-27T12:30:45.090Z,33.25
2022-07-27T12:33:35.704Z,32.92
2022-07-27T12:36:05.687Z,32.89
2022-07-27T12:38:46.259Z,32.86
2022-07-27T12:41:35.345Z,32.68
2022-07-27T12:44:12.615Z,32.57
2022-07-27T12:46:56.292Z,32.41
2022-07-27T12:49:34.397Z,32.18
2022-07-27T12:52:08.657Z,31.81
2022-07-27T12:54:35.940Z,31.53
2022-07-27T12:57:03.561Z,31.29
2022-07-27T12:59:30.464Z,31.15
2022-07-27T13:01:57.507Z,31.05
2022-07-27T13:04:24.500Z,30.72
2022-07-27T13:06:51.348Z,30.48
2022-07-27T13:09:18.321Z,30.41
2022-07-27T13:11:48.078Z,30.43
2022-07-27T13:14:15.447Z,30.52
2022-07-27T13:16:42.553Z,30.61
2022-07-27T13:19:09.802Z,30.67
2022-07-27T13:21:36.994Z,30.71
2022-07-27T13:24:04.350Z,30.78
2022-07-27T13:26:31.191Z,30.83
2022-07-27T13:28:58.001Z,30.71
2022-07-27T13:31:25.775Z,30.29
2022-07-27T13:33:53.007Z,30.04
2022-07-27T13:36:19.780Z,29.96
2022-07-27T13:38:46.918Z,29.93
2022-07-27T13:41:13.751Z,29.86
2022-07-27T13:43:40.705Z,29.78
2022-07-27T13:46:08.625Z,29.45
2022-07-27T13:48:35.579Z,29.26
2022-07-27T13:51:03.650Z,28.80
2022-07-27T13:53:30.869Z,28.49
2022-07-27T13:55:57.783Z,28.25
2022-07-27T13:58:24.853Z,28.14
2022-07-27T14:00:52.063Z,28.16
2022-07-27T14:03:19.516Z,28.15
2022-07-27T14:05:49.113Z,28.06
2022-07-27T14:08:18.816Z,28.04
2022-07-27T14:10:45.771Z,28.01
2022-07-27T14:13:14.565Z,28.09
2022-07-27T14:15:52.957Z,27.98
2022-07-27T14:18:24.807Z,28.07
2022-07-27T14:20:51.954Z,28.03
2022-07-27T14:23:18.931Z,28.01
2022-07-27T14:25:46.480Z,28.02
2022-07-27T14:28:13.625Z,28.04
2022-07-27T14:30:40.466Z,28.05
2022-07-27T14:33:07.217Z,28.07
2022-07-27T14:35:39.901Z,27.96
2022-07-27T14:38:07.659Z,28.09
2022-07-27T14:40:34.475Z,28.16
2022-07-27T14:43:01.780Z,28.24
2022-07-27T14:45:44.652Z,28.37
2022-07-27T14:48:28.234Z,28.42
2022-07-27T14:51:01.106Z,28.38
2022-07-27T14:53:28.046Z,28.24
2022-07-27T14:55:54.934Z,28.38
2022-07-27T14:58:21.866Z,28.51
2022-07-27T15:00:48.933Z,28.63
2022-07-27T15:03:16.107Z,28.69
2022-07-27T15:05:50.470Z,28.79
2022-07-27T15:08:20.091Z,28.84
2022-07-27T15:10:47.951Z,28.88
2022-07-27T15:13:15.032Z,28.91
2022-07-27T15:15:42.468Z,28.90
2022-07-27T15:18:09.451Z,28.79
2022-07-27T15:20:36.805Z,28.60
2022-07-27T15:23:06.647Z,28.46
2022-07-27T15:25:34.013Z,28.28
2022-07-27T15:28:01.109Z,28.12
2022-07-27T15:30:28.389Z,28.02
2022-07-27T15:32:55.174Z,27.82
2022-07-27T15:35:22.069Z,27.64
2022-07-27T15:37:53.535Z,27.50
2022-07-27T15:40:38.661Z,27.45
2022-07-27T15:43:08.503Z,27.44
2022-07-27T15:45:38.943Z,27.42
2022-07-27T15:48:08.636Z,27.33
2022-07-27T15:50:40.134Z,27.20
2022-07-27T15:53:07.927Z,27.09
2022-07-27T15:55:37.511Z,27.02
2022-07-27T15:58:06.269Z,26.93
2022-07-27T16:00:39.184Z,26.84
2022-07-27T16:03:07.772Z,26.79
2022-07-27T16:05:35.287Z,26.74
2022-07-27T16:08:02.520Z,26.64
2022-07-27T16:10:30.266Z,26.56
2022-07-27T16:12:57.771Z,26.50
2022-07-27T16:15:44.691Z,26.48
2022-07-27T16:18:12.294Z,26.46
2022-07-27T16:20:39.528Z,26.46
2022-07-27T16:23:18.818Z,26.40
2022-07-27T16:26:10.036Z,26.30
2022-07-27T16:28:39.855Z,26.18
2022-07-27T16:31:08.414Z,26.12
2022-07-27T16:33:35.363Z,26.01
2022-07-27T16:36:02.308Z,25.93
2022-07-27T16:38:29.468Z,25.84
2022-07-27T16:40:56.335Z,25.75
2022-07-27T16:43:23.222Z,25.66
2022-07-27T16:46:07.006Z,25.59
2022-07-27T16:48:41.622Z,25.55
2022-07-27T16:51:14.566Z,25.51
2022-07-27T16:53:45.706Z,25.44
2022-07-27T16:56:12.741Z,25.39
2022-07-27T16:58:39.878Z,25.33
2022-07-27T17:01:07.658Z,25.25
2022-07-27T17:03:34.849Z,25.19
2022-07-27T17:06:06.049Z,25.15
2022-07-27T17:08:35.785Z,25.08
2022-07-27T17:11:02.933Z,24.90
2022-07-27T17:13:34.545Z,24.89
2022-07-27T17:16:06.916Z,24.84
2022-07-27T17:18:40.302Z,24.84
2022-07-27T17:21:15.247Z,24.80
2022-07-27T17:23:44.013Z,24.75
2022-07-27T17:26:12.247Z,24.68
2022-07-27T17:28:40.419Z,24.63
2022-07-27T17:31:10.304Z,24.55
2022-07-27T17:33:38.627Z,24.48
2022-07-27T17:36:09.539Z,24.39
2022-07-27T17:38:41.414Z,24.30
2022-07-27T17:41:08.269Z,24.19
2022-07-27T17:43:38.656Z,24.07
2022-07-27T17:46:07.548Z,23.92
2022-07-27T17:48:35.700Z,23.72
2022-07-27T17:51:03.608Z,23.54
2022-07-27T17:53:30.724Z,23.33
2022-07-27T17:55:57.639Z,23.11
2022-07-27T17:58:29.762Z,22.89
2022-07-27T18:00:57.879Z,22.68
2022-07-27T18:03:24.724Z,22.55
2022-07-27T18:05:51.522Z,22.37
2022-07-27T18:08:18.668Z,22.18
2022-07-27T18:10:45.648Z,22.00
2022-07-27T18:13:12.690Z,21.79
2022-07-27T18:15:48.717Z,21.63
2022-07-27T18:18:26.537Z,21.47
2022-07-27T18:20:56.660Z,21.26
2022-07-27T18:23:26.084Z,21.08
2022-07-27T18:25:53.030Z,20.90
2022-07-27T18:28:21.284Z,20.73
2022-07-27T18:30:50.745Z,20.59
2022-07-27T18:33:17.932Z,20.42
2022-07-27T18:35:46.445Z,20.32
2022-07-27T18:38:14.218Z,20.15
2022-07-27T18:40:42.767Z,19.99
2022-07-27T18:43:10.872Z,19.85
2022-07-27T18:45:39.305Z,19.72
2022-07-27T18:48:10.391Z,19.58
2022-07-27T18:50:39.592Z,19.46
2022-07-27T18:53:07.053Z,19.22
2022-07-27T18:55:33.940Z,19.14
2022-07-27T18:58:01.906Z,19.06
2022-07-27T19:00:28.860Z,18.97
2022-07-27T19:02:58.068Z,18.86
2022-07-27T19:05:32.260Z,18.78
2022-07-27T19:08:00.023Z,18.68
2022-07-27T19:10:27.337Z,18.60
2022-07-27T19:12:55.687Z,18.48
2022-07-27T19:15:22.771Z,18.39
2022-07-27T19:17:49.816Z,18.26
2022-07-27T19:20:16.723Z,18.11
2022-07-27T19:22:47.801Z,17.99
2022-07-27T19:25:15.622Z,17.88
2022-07-27T19:27:43.234Z,17.78
2022-07-27T19:30:12.390Z,17.68
2022-07-27T19:32:39.659Z,17.49
2022-07-27T19:35:07.040Z,17.45
2022-07-27T19:37:34.095Z,17.36
2022-07-27T19:40:20.233Z,17.31
2022-07-27T19:42:48.273Z,17.21
2022-07-27T19:45:15.410Z,17.13
2022-07-27T19:47:42.296Z,17.04
2022-07-27T19:50:09.574Z,17.02
2022-07-27T19:52:36.648Z,16.95
2022-07-27T19:55:04.873Z,16.92
2022-07-27T19:57:31.711Z,16.86
2022-07-27T19:59:58.977Z,16.78
2022-07-27T20:02:25.917Z,16.72
2022-07-27T20:04:53.099Z,16.67
2022-07-27T20:07:20.167Z,16.61
2022-07-27T20:09:48.509Z,16.61
2022-07-27T20:12:15.382Z,16.56
2022-07-27T20:14:42.527Z,16.52
2022-07-27T20:17:09.536Z,16.50
2022-07-27T20:19:36.386Z,16.48
2022-07-27T20:22:03.625Z,16.44
2022-07-27T20:24:30.571Z,16.39
2022-07-27T20:26:57.586Z,16.35
2022-07-27T20:29:29.127Z,16.29
2022-07-27T20:31:58.956Z,16.24
2022-07-27T20:34:26.189Z,16.19
2022-07-27T20:36:55.242Z,16.15
2022-07-27T20:39:23.714Z,16.12
2022-07-27T20:41:51.137Z,16.07
2022-07-27T20:44:17.954Z,16.08
2022-07-27T20:46:44.787Z,16.04
2022-07-27T20:49:12.117Z,15.98
2022-07-27T20:51:40.863Z,15.97
2022-07-27T20:54:07.976Z,15.88
2022-07-27T20:56:34.982Z,15.84
2022-07-27T20:59:01.933Z,15.81
2022-07-27T21:01:34.525Z,15.73
2022-07-27T21:04:01.702Z,15.68
2022-07-27T21:06:28.917Z,15.63
2022-07-27T21:08:55.808Z,15.61
2022-07-27T21:11:22.808Z,15.59
2022-07-27T21:13:49.689Z,15.55
2022-07-27T21:16:16.556Z,15.55
2022-07-27T21:18:43.756Z,15.51
2022-07-27T21:21:10.576Z,15.47
2022-07-27T21:23:56.416Z,15.42
2022-07-27T21:26:23.565Z,15.37
2022-07-27T21:28:50.375Z,15.35
2022-07-27T21:31:17.432Z,15.32
2022-07-27T21:33:44.530Z,15.32
2022-07-27T21:36:11.380Z,15.31
2022-07-27T21:38:38.145Z,15.29
2022-07-27T21:41:05.875Z,15.30
2022-07-27T21:43:33.686Z,15.29
2022-07-27T21:46:00.546Z,15.29
2022-07-27T21:48:27.635Z,15.27
2022-07-27T21:50:54.403Z,15.25
2022-07-27T21:53:21.265Z,15.24
2022-07-27T21:55:48.298Z,15.25
2022-07-27T21:58:15.553Z,15.25
2022-07-27T22:00:42.560Z,15.21
2022-07-27T22:03:10.119Z,15.20
2022-07-27T22:05:37.124Z,15.22
2022-07-27T22:08:04.100Z,15.23
2022-07-27T22:10:31.641Z,15.20
2022-07-27T22:12:58.605Z,15.20
2022-07-27T22:15:26.052Z,15.18
2022-07-27T22:17:53.212Z,15.15
2022-07-27T22:20:21.227Z,15.15
2022-07-27T22:22:48.837Z,15.16
2022-07-27T22:25:16.152Z,15.14
2022-07-27T22:27:42.989Z,15.10
2022-07-27T22:30:09.919Z,15.07
2022-07-27T22:32:36.936Z,15.05
2022-07-27T22:35:03.974Z,15.06
2022-07-27T22:37:30.814Z,15.05
2022-07-27T22:39:57.888Z,15.00
2022-07-27T22:42:24.708Z,15.01
2022-07-27T22:44:51.509Z,15.00
2022-07-27T22:47:18.802Z,15.02
2022-07-27T22:49:45.648Z,15.02
2022-07-27T22:52:12.506Z,15.04
2022-07-27T22:54:39.594Z,15.04
2022-07-27T22:57:06.482Z,15.03
2022-07-27T22:59:34.714Z,15.00
2022-07-27T23:02:02.292Z,15.02
2022-07-27T23:04:29.169Z,14.99
2022-07-27T23:06:56.670Z,14.96
2022-07-27T23:09:24.083Z,14.96
2022-07-27T23:11:51.390Z,14.97
2022-07-27T23:14:18.933Z,14.99
2022-07-27T23:16:46.447Z,14.99
2022-07-27T23:19:13.377Z,14.99
2022-07-27T23:21:42.040Z,14.96
2022-07-27T23:24:11.167Z,14.92
2022-07-27T23:26:40.389Z,14.91
2022-07-27T23:29:07.314Z,14.90
2022-07-27T23:31:34.656Z,14.91
2022-07-27T23:34:01.671Z,14.90
2022-07-27T23:36:28.575Z,14.86
2022-07-27T23:38:55.584Z,14.87
2022-07-27T23:41:22.569Z,14.87
2022-07-27T23:43:49.378Z,14.90
2022-07-27T23:46:16.520Z,14.95
2022-07-27T23:48:44.054Z,14.95
2022-07-27T23:51:17.889Z,14.93
2022-07-27T23:53:45.225Z,14.95
2022-07-27T23:56:12.010Z,14.94
2022-07-27T23:58:38.836Z,14.94
